Bremen — C6JC3 — position and weather

sailwx.info

Track history (hours):
 
Tides and Currents Weather Stations Pressure Air Temp Water Temp Dewpoint Dewpoint Depression Visibility Wind Speed Wind Dir Waves Ship Positions

Bremen

Operator: Hapag-Lloyd Container Line

Last reported at 2016-Jun-17 20:18 UTC. Time now 2016-Jun-25 10:40 UTC.
Position N 55°46' W 006°01'.

Length 111.5 m; beam 17 m; draft 4.8 m.

Type: Ship. MMSI: 308429000.

Date/timePositionNaut miles runAvg speedWind from/ knotsBaromVisibWave heightAir tempDewpointWater temp
2016-Jun-17 20:18N 55°46' W 006°01'912.2
2016-Jun-17 19:33N 55°37' W 006°04'2 1.8
2016-Jun-17 18:24N 55°38' W 006°07'0 0.0
2016-Jun-17 17:27N 55°38' W 006°07'0 0.0
2016-Jun-17 16:28N 55°38' W 006°07'0 0.0
2016-Jun-17 15:31N 55°38' W 006°07'0 0.0
2016-Jun-17 14:31N 55°38' W 006°07'0 0.1
2016-Jun-17 13:31N 55°38' W 006°07'0 0.0
2016-Jun-17 12:32N 55°38' W 006°07'4 4.0
2016-Jun-17 11:33N 55°34' W 006°10'1515.0
2016-Jun-17 10:33N 55°20' W 006°19'5 1.1
2016-Jun-17 06:06N 55°17' W 006°12'2 3.0
2016-Jun-17 05:32N 55°16' W 006°13'8 8.3
2016-Jun-17 04:33N 55°14' W 005°59'5 4.8
2016-Jun-17 03:33N 55°13' W 005°51'4 3.8
2016-Jun-17 02:33N 55°13' W 005°45'5 4.6
2016-Jun-17 01:32N 55°12' W 005°36'5 4.6
2016-Jun-17 00:32N 55°13' W 005°28'27 5.3
2016-Jun-16 19:33N 55°34' W 004°59'1412.9
2016-Jun-16 18:28N 55°48' W 004°59'4 0.9
2016-Jun-16 14:33N 55°51' W 005°03'0 0.0
2016-Jun-16 13:27N 55°51' W 005°03'5 5.2
2016-Jun-16 12:33N 55°47' W 004°58'9 8.0
2016-Jun-16 11:28N 55°47' W 005°14'24 2.9
2016-Jun-16 03:27N 55°24' W 005°01'1612.9
2016-Jun-16 02:11N 55°11' W 005°18'812.8
2016-Jun-16 01:33N 55°03' W 005°18'1212.4
2016-Jun-16 00:34N 54°51' W 005°18'1414.0
2016-Jun-15 23:34N 54°37' W 005°17'1514.8
2016-Jun-15 22:33N 54°22' W 005°18'1514.5
2016-Jun-15 21:33N 54°09' W 005°27'1614.6
2016-Jun-15 20:26N 53°54' W 005°38'15 0.7
2016-Jun-15 00:14N 53°44' W 005°56'4 5.7
2016-Jun-14 23:33N 53°48' W 005°58'6 5.7
2016-Jun-14 22:33N 53°53' W 005°59'5 5.4
2016-Jun-14 21:33N 53°59' W 006°01'2 0.1
2016-Jun-14 04:33N 54°01' W 006°03'9 9.1
2016-Jun-14 03:33N 54°03' W 005°48'1111.2
2016-Jun-14 02:33N 54°10' W 005°32'1111.4
2016-Jun-14 01:33N 54°19' W 005°21'1211.9
2016-Jun-14 00:33N 54°31' W 005°19'1212.0
2016-Jun-13 23:33N 54°42' W 005°23'1211.8
2016-Jun-13 22:33N 54°53' W 005°32'1211.8
2016-Jun-13 21:33N 55°03' W 005°43'1212.1
2016-Jun-13 20:33N 55°13' W 005°56'1211.5
2016-Jun-13 19:33N 55°21' W 006°09'1211.9
2016-Jun-13 18:33N 55°24' W 006°29'1211.6
2016-Jun-13 17:33N 55°27' W 006°49'1211.7
2016-Jun-13 16:33N 55°29' W 007°09'168 3.6
2016-Jun-11 17:33N 53°13' W 009°58'1211.8
2016-Jun-11 16:32N 53°11' W 009°39'3 3.4
2016-Jun-11 15:33N 53°07' W 009°39'0 0.0
2016-Jun-11 14:24N 53°07' W 009°39'0 0.0
2016-Jun-11 13:24N 53°07' W 009°39'0 0.0
2016-Jun-11 12:27N 53°07' W 009°39'0 0.0
2016-Jun-11 11:29N 53°07' W 009°39'0 0.0
2016-Jun-11 10:29N 53°07' W 009°39'0 0.0
2016-Jun-11 09:33N 53°07' W 009°39'0 0.0
2016-Jun-11 08:32N 53°07' W 009°39'4 3.9
2016-Jun-11 07:33N 53°06' W 009°32'8 8.4
2016-Jun-11 06:33N 52°59' W 009°28'9 8.6
2016-Jun-11 05:33N 52°52' W 009°37'9 8.8
2016-Jun-11 04:32N 52°45' W 009°46'74 1.9
2016-Jun-09 14:21N 51°35' W 010°23'911.6
2016-Jun-09 13:33N 51°32' W 010°08'13 0.8
2016-Jun-08 22:31N 51°36' W 009°49'1111.6
2016-Jun-08 21:33N 51°25' W 009°55'1414.2
2016-Jun-08 20:34N 51°25' W 009°32'1414.2
2016-Jun-08 19:33N 51°27' W 009°09'1414.0
2016-Jun-08 18:33N 51°31' W 008°48'1413.8
2016-Jun-08 17:33N 51°35' W 008°27'1313.2
2016-Jun-08 16:33N 51°47' W 008°15'7 7.2
2016-Jun-08 15:33N 51°53' W 008°21'4 0.4
2016-Jun-08 06:30N 51°54' W 008°27'6 6.7
2016-Jun-08 05:33N 51°50' W 008°19'6 6.3
2016-Jun-08 04:33N 51°45' W 008°15'1211.7
2016-Jun-08 03:33N 51°35' W 008°03'1211.9
2016-Jun-08 02:33N 51°27' W 007°50'  
Track history (hours):
 
Tides and Currents Weather Stations Pressure Air Temp Water Temp Dewpoint Dewpoint Depression Visibility Wind Speed Wind Dir Waves Ship Positions

Bremen

Operator: Hapag-Lloyd Container Line

Last reported at 2016-Jun-17 20:18 UTC. Time now 2016-Jun-25 10:40 UTC.
Position N 55°46' W 006°01'.

Length 111.5 m; beam 17 m; draft 4.8 m.

Type: Ship. MMSI: 308429000.

Date/timePositionNaut miles runAvg speedWind from/ knotsBaromVisibWave heightAir tempDewpointWater temp
2016-Jun-17 20:18N 55°46' W 006°01'912.2
2016-Jun-17 19:33N 55°37' W 006°04'2 1.8
2016-Jun-17 18:24N 55°38' W 006°07'0 0.0
2016-Jun-17 17:27N 55°38' W 006°07'0 0.0
2016-Jun-17 16:28N 55°38' W 006°07'0 0.0
2016-Jun-17 15:31N 55°38' W 006°07'0 0.0
2016-Jun-17 14:31N 55°38' W 006°07'0 0.1
2016-Jun-17 13:31N 55°38' W 006°07'0 0.0
2016-Jun-17 12:32N 55°38' W 006°07'4 4.0
2016-Jun-17 11:33N 55°34' W 006°10'1515.0
2016-Jun-17 10:33N 55°20' W 006°19'5 1.1
2016-Jun-17 06:06N 55°17' W 006°12'2 3.0
2016-Jun-17 05:32N 55°16' W 006°13'8 8.3
2016-Jun-17 04:33N 55°14' W 005°59'5 4.8
2016-Jun-17 03:33N 55°13' W 005°51'4 3.8
2016-Jun-17 02:33N 55°13' W 005°45'5 4.6
2016-Jun-17 01:32N 55°12' W 005°36'5 4.6
2016-Jun-17 00:32N 55°13' W 005°28'27 5.3
2016-Jun-16 19:33N 55°34' W 004°59'1412.9
2016-Jun-16 18:28N 55°48' W 004°59'4 0.9
2016-Jun-16 14:33N 55°51' W 005°03'0 0.0
2016-Jun-16 13:27N 55°51' W 005°03'5 5.2
2016-Jun-16 12:33N 55°47' W 004°58'9 8.0
2016-Jun-16 11:28N 55°47' W 005°14'24 2.9
2016-Jun-16 03:27N 55°24' W 005°01'1612.9
2016-Jun-16 02:11N 55°11' W 005°18'812.8
2016-Jun-16 01:33N 55°03' W 005°18'1212.4
2016-Jun-16 00:34N 54°51' W 005°18'1414.0
2016-Jun-15 23:34N 54°37' W 005°17'1514.8
2016-Jun-15 22:33N 54°22' W 005°18'1514.5
2016-Jun-15 21:33N 54°09' W 005°27'1614.6
2016-Jun-15 20:26N 53°54' W 005°38'15 0.7
2016-Jun-15 00:14N 53°44' W 005°56'4 5.7
2016-Jun-14 23:33N 53°48' W 005°58'6 5.7
2016-Jun-14 22:33N 53°53' W 005°59'5 5.4
2016-Jun-14 21:33N 53°59' W 006°01'2 0.1
2016-Jun-14 04:33N 54°01' W 006°03'9 9.1
2016-Jun-14 03:33N 54°03' W 005°48'1111.2
2016-Jun-14 02:33N 54°10' W 005°32'1111.4
2016-Jun-14 01:33N 54°19' W 005°21'1211.9
2016-Jun-14 00:33N 54°31' W 005°19'1212.0
2016-Jun-13 23:33N 54°42' W 005°23'1211.8
2016-Jun-13 22:33N 54°53' W 005°32'1211.8
2016-Jun-13 21:33N 55°03' W 005°43'1212.1
2016-Jun-13 20:33N 55°13' W 005°56'1211.5
2016-Jun-13 19:33N 55°21' W 006°09'1211.9
2016-Jun-13 18:33N 55°24' W 006°29'1211.6
2016-Jun-13 17:33N 55°27' W 006°49'1211.7
2016-Jun-13 16:33N 55°29' W 007°09'168 3.6
2016-Jun-11 17:33N 53°13' W 009°58'1211.8
2016-Jun-11 16:32N 53°11' W 009°39'3 3.4
2016-Jun-11 15:33N 53°07' W 009°39'0 0.0
2016-Jun-11 14:24N 53°07' W 009°39'0 0.0
2016-Jun-11 13:24N 53°07' W 009°39'0 0.0
2016-Jun-11 12:27N 53°07' W 009°39'0 0.0
2016-Jun-11 11:29N 53°07' W 009°39'0 0.0
2016-Jun-11 10:29N 53°07' W 009°39'0 0.0
2016-Jun-11 09:33N 53°07' W 009°39'0 0.0
2016-Jun-11 08:32N 53°07' W 009°39'4 3.9
2016-Jun-11 07:33N 53°06' W 009°32'8 8.4
2016-Jun-11 06:33N 52°59' W 009°28'9 8.6
2016-Jun-11 05:33N 52°52' W 009°37'9 8.8
2016-Jun-11 04:32N 52°45' W 009°46'74 1.9
2016-Jun-09 14:21N 51°35' W 010°23'911.6
2016-Jun-09 13:33N 51°32' W 010°08'13 0.8
2016-Jun-08 22:31N 51°36' W 009°49'1111.6
2016-Jun-08 21:33N 51°25' W 009°55'1414.2
2016-Jun-08 20:34N 51°25' W 009°32'1414.2
2016-Jun-08 19:33N 51°27' W 009°09'1414.0
2016-Jun-08 18:33N 51°31' W 008°48'1413.8
2016-Jun-08 17:33N 51°35' W 008°27'1313.2
2016-Jun-08 16:33N 51°47' W 008°15'7 7.2
2016-Jun-08 15:33N 51°53' W 008°21'4 0.4
2016-Jun-08 06:30N 51°54' W 008°27'6 6.7
2016-Jun-08 05:33N 51°50' W 008°19'6 6.3
2016-Jun-08 04:33N 51°45' W 008°15'1211.7
2016-Jun-08 03:33N 51°35' W 008°03'1211.9
2016-Jun-08 02:33N 51°27' W 007°50'  

Dump ship's entire track history